Terminal Aerodrome Forecast
Issued by NWS Sioux Falls, SD

Home | Current Version | Previous Version | Graphics & Text | Print | Product List | Glossary On
Versions: 1 2 3 4 5 6 7 8 9 10 11 12 13 14 15 16
000
FTUS43 KFSD 251720
TAFFSD
TAF
KFSD 251720Z 2518/2618 18013G21KT P6SM SCT120 SCT250
     FM260200 15007KT P6SM BKN150
     FM260400 14005KT P6SM OVC060
     FM260600 11008KT P6SM OVC060
     FM260900 13005KT 4SM -SHRA VCTS SCT025 OVC035CB
     FM261500 05007KT P6SM SCT015 OVC025=

USA.gov is the U.S. government's official web portal to all federal, state and local government web resources and services.